Aviation Digital Data Service (ADDS)

Output produced by METARs form (1525 UTC 19 January 2019)
found at http://www.aviationweather.gov/metar/data/
 
METAR text: OKBK 191500Z 35009KT CAVOK 12/M02 Q1023 NOSIG
Conditions at: OKBK (KUWAIT INTL (MIL, KW) observed 1500 UTC 19 January 2019
Temperature: 12.0°C (54°F)
Dewpoint: -2.0°C (28°F) [RH = 38%]
Pressure (altimeter): 30.21 inches Hg (1023.0 mb)
Winds: from the N (350 degrees) at 10 MPH (9 knots; 4.6 m/s)
Visibility: 6 or more miles (10+ km)
Ceiling: ceiling and visibility are OK
Clouds: unknown
Weather: no significant weather observed at this time

METAR text: OKBK 191400Z 36011KT CAVOK 13/M03 Q1022 NOSIG
Conditions at: OKBK (KUWAIT INTL (MIL, KW) observed 1400 UTC 19 January 2019
Temperature: 13.0°C (55°F)
Dewpoint: -3.0°C (27°F) [RH = 33%]
Pressure (altimeter): 30.18 inches Hg (1022.0 mb)
Winds: from the N (360 degrees) at 13 MPH (11 knots; 5.7 m/s)
Visibility: 6 or more miles (10+ km)
Ceiling: ceiling and visibility are OK
Clouds: unknown
Weather: no significant weather observed at this time

METAR text: OKBK 191300Z 36012KT CAVOK 14/M03 Q1022 NOSIG
Conditions at: OKBK (KUWAIT INTL (MIL, KW) observed 1300 UTC 19 January 2019
Temperature: 14.0°C (57°F)
Dewpoint: -3.0°C (27°F) [RH = 31%]
Pressure (altimeter): 30.18 inches Hg (1022.0 mb)
Winds: from the N (360 degrees) at 14 MPH (12 knots; 6.2 m/s)
Visibility: 6 or more miles (10+ km)
Ceiling: ceiling and visibility are OK
Clouds: unknown
Weather: no significant weather observed at this time

METAR text: OKBK 191200Z 36011KT CAVOK 14/M03 Q1022 NOSIG
Conditions at: OKBK (KUWAIT INTL (MIL, KW) observed 1200 UTC 19 January 2019
Temperature: 14.0°C (57°F)
Dewpoint: -3.0°C (27°F) [RH = 31%]
Pressure (altimeter): 30.18 inches Hg (1022.0 mb)
Winds: from the N (360 degrees) at 13 MPH (11 knots; 5.7 m/s)
Visibility: 6 or more miles (10+ km)
Ceiling: ceiling and visibility are OK
Clouds: unknown
Weather: no significant weather observed at this time

METAR text: OKBK 191100Z 36010KT CAVOK 14/M02 Q1022 NOSIG
Conditions at: OKBK (KUWAIT INTL (MIL, KW) observed 1100 UTC 19 January 2019
Temperature: 14.0°C (57°F)
Dewpoint: -2.0°C (28°F) [RH = 33%]
Pressure (altimeter): 30.18 inches Hg (1022.0 mb)
Winds: from the N (360 degrees) at 12 MPH (10 knots; 5.1 m/s)
Visibility: 6 or more miles (10+ km)
Ceiling: ceiling and visibility are OK
Clouds: unknown
Weather: no significant weather observed at this time

METAR text: OKBK 191000Z 35011KT CAVOK 14/M02 Q1022 NOSIG
Conditions at: OKBK (KUWAIT INTL (MIL, KW) observed 1000 UTC 19 January 2019
Temperature: 14.0°C (57°F)
Dewpoint: -2.0°C (28°F) [RH = 33%]
Pressure (altimeter): 30.18 inches Hg (1022.0 mb)
Winds: from the N (350 degrees) at 13 MPH (11 knots; 5.7 m/s)
Visibility: 6 or more miles (10+ km)
Ceiling: ceiling and visibility are OK
Clouds: unknown
Weather: no significant weather observed at this time

METAR text: OKBK 190900Z 35010KT CAVOK 13/M02 Q1023 NOSIG
Conditions at: OKBK (KUWAIT INTL (MIL, KW) observed 0900 UTC 19 January 2019
Temperature: 13.0°C (55°F)
Dewpoint: -2.0°C (28°F) [RH = 35%]
Pressure (altimeter): 30.21 inches Hg (1023.0 mb)
Winds: from the N (350 degrees) at 12 MPH (10 knots; 5.1 m/s)
Visibility: 6 or more miles (10+ km)
Ceiling: ceiling and visibility are OK
Clouds: unknown
Weather: no significant weather observed at this time

METAR text: OKBK 190800Z 34008KT CAVOK 13/M01 Q1024 NOSIG
Conditions at: OKBK (KUWAIT INTL (MIL, KW) observed 0800 UTC 19 January 2019
Temperature: 13.0°C (55°F)
Dewpoint: -1.0°C (30°F) [RH = 38%]
Pressure (altimeter): 30.24 inches Hg (1024.0 mb)
Winds: from the NNW (340 degrees) at 9 MPH (8 knots; 4.1 m/s)
Visibility: 6 or more miles (10+ km)
Ceiling: ceiling and visibility are OK
Clouds: unknown
Weather: no significant weather observed at this time

METAR text: OKBK 190700Z 34007KT CAVOK 12/M02 Q1024 NOSIG
Conditions at: OKBK (KUWAIT INTL (MIL, KW) observed 0700 UTC 19 January 2019
Temperature: 12.0°C (54°F)
Dewpoint: -2.0°C (28°F) [RH = 38%]
Pressure (altimeter): 30.24 inches Hg (1024.0 mb)
Winds: from the NNW (340 degrees) at 8 MPH (7 knots; 3.6 m/s)
Visibility: 6 or more miles (10+ km)
Ceiling: ceiling and visibility are OK
Clouds: unknown
Weather: no significant weather observed at this time

METAR text: OKBK 190600Z 29005KT CAVOK 09/M00 Q1024 NOSIG
Conditions at: OKBK (KUWAIT INTL (MIL, KW) observed 0600 UTC 19 January 2019
Temperature: 9.0°C (48°F)
Dewpoint: 0.0°C (32°F) [RH = 53%]
Pressure (altimeter): 30.24 inches Hg (1024.0 mb)
Winds: from the WNW (290 degrees) at 6 MPH (5 knots; 2.6 m/s)
Visibility: 6 or more miles (10+ km)
Ceiling: ceiling and visibility are OK
Clouds: unknown
Weather: no significant weather observed at this time

METAR text: OKBK 190500Z 24004KT CAVOK 06/02 Q1024 NOSIG
Conditions at: OKBK (KUWAIT INTL (MIL, KW) observed 0500 UTC 19 January 2019
Temperature: 6.0°C (43°F)
Dewpoint: 2.0°C (36°F) [RH = 75%]
Pressure (altimeter): 30.24 inches Hg (1024.0 mb)
Winds: from the WSW (240 degrees) at 5 MPH (4 knots; 2.1 m/s)
Visibility: 6 or more miles (10+ km)
Ceiling: ceiling and visibility are OK
Clouds: unknown
Weather: no significant weather observed at this time

METAR text: OKBK 190400Z 24003KT CAVOK 04/00 Q1023 NOSIG
Conditions at: OKBK (KUWAIT INTL (MIL, KW) observed 0400 UTC 19 January 2019
Temperature: 4.0°C (39°F)
Dewpoint: 0.0°C (32°F) [RH = 75%]
Pressure (altimeter): 30.21 inches Hg (1023.0 mb)
Winds: from the WSW (240 degrees) at 3 MPH (3 knots; 1.5 m/s)
Visibility: 6 or more miles (10+ km)
Ceiling: ceiling and visibility are OK
Clouds: unknown
Weather: no significant weather observed at this time

METAR text: OKBK 190300Z 00000KT CAVOK 04/M00 Q1022 NOSIG
Conditions at: OKBK (KUWAIT INTL (MIL, KW) observed 0300 UTC 19 January 2019
Temperature: 4.0°C (39°F)
Dewpoint: 0.0°C (32°F) [RH = 75%]
Pressure (altimeter): 30.18 inches Hg (1022.0 mb)
Winds: calm
Visibility: 6 or more miles (10+ km)
Ceiling: ceiling and visibility are OK
Clouds: unknown
Weather: no significant weather observed at this time

METAR text: OKBK 190200Z 22003KT CAVOK 04/M00 Q1022 NOSIG
Conditions at: OKBK (KUWAIT INTL (MIL, KW) observed 0200 UTC 19 January 2019
Temperature: 4.0°C (39°F)
Dewpoint: 0.0°C (32°F) [RH = 75%]
Pressure (altimeter): 30.18 inches Hg (1022.0 mb)
Winds: from the SW (220 degrees) at 3 MPH (3 knots; 1.5 m/s)
Visibility: 6 or more miles (10+ km)
Ceiling: ceiling and visibility are OK
Clouds: unknown
Weather: no significant weather observed at this time

METAR text: OKBK 190100Z 23003KT CAVOK 06/M00 Q1022 NOSIG
Conditions at: OKBK (KUWAIT INTL (MIL, KW) observed 0100 UTC 19 January 2019
Temperature: 6.0°C (43°F)
Dewpoint: 0.0°C (32°F) [RH = 65%]
Pressure (altimeter): 30.18 inches Hg (1022.0 mb)
Winds: from the SW (230 degrees) at 3 MPH (3 knots; 1.5 m/s)
Visibility: 6 or more miles (10+ km)
Ceiling: ceiling and visibility are OK
Clouds: unknown
Weather: no significant weather observed at this time

METAR text: OKBK 190000Z 26004KT CAVOK 05/00 Q1022 NOSIG
Conditions at: OKBK (KUWAIT INTL (MIL, KW) observed 0000 UTC 19 January 2019
Temperature: 5.0°C (41°F)
Dewpoint: 0.0°C (32°F) [RH = 70%]
Pressure (altimeter): 30.18 inches Hg (1022.0 mb)
Winds: from the W (260 degrees) at 5 MPH (4 knots; 2.1 m/s)
Visibility: 6 or more miles (10+ km)
Ceiling: ceiling and visibility are OK
Clouds: unknown
Weather: no significant weather observed at this time

METAR text: OKBK 182300Z 00000KT CAVOK 06/01 Q1021 NOSIG
Conditions at: OKBK (KUWAIT INTL (MIL, KW) observed 2300 UTC 18 January 2019
Temperature: 6.0°C (43°F)
Dewpoint: 1.0°C (34°F) [RH = 70%]
Pressure (altimeter): 30.15 inches Hg (1021.0 mb)
Winds: calm
Visibility: 6 or more miles (10+ km)
Ceiling: ceiling and visibility are OK
Clouds: unknown
Weather: no significant weather observed at this time

METAR text: OKBK 182200Z 00000KT CAVOK 07/M00 Q1022 NOSIG
Conditions at: OKBK (KUWAIT INTL (MIL, KW) observed 2200 UTC 18 January 2019
Temperature: 7.0°C (45°F)
Dewpoint: 0.0°C (32°F) [RH = 61%]
Pressure (altimeter): 30.18 inches Hg (1022.0 mb)
Winds: calm
Visibility: 6 or more miles (10+ km)
Ceiling: ceiling and visibility are OK
Clouds: unknown
Weather: no significant weather observed at this time

METAR text: OKBK 182100Z 30003KT CAVOK 08/M00 Q1022 NOSIG
Conditions at: OKBK (KUWAIT INTL (MIL, KW) observed 2100 UTC 18 January 2019
Temperature: 8.0°C (46°F)
Dewpoint: 0.0°C (32°F) [RH = 57%]
Pressure (altimeter): 30.18 inches Hg (1022.0 mb)
Winds: from the WNW (300 degrees) at 3 MPH (3 knots; 1.5 m/s)
Visibility: 6 or more miles (10+ km)
Ceiling: ceiling and visibility are OK
Clouds: unknown
Weather: no significant weather observed at this time

METAR text: OKBK 182000Z 31004KT CAVOK 09/M00 Q1022 NOSIG
Conditions at: OKBK (KUWAIT INTL (MIL, KW) observed 2000 UTC 18 January 2019
Temperature: 9.0°C (48°F)
Dewpoint: 0.0°C (32°F) [RH = 53%]
Pressure (altimeter): 30.18 inches Hg (1022.0 mb)
Winds: from the NW (310 degrees) at 5 MPH (4 knots; 2.1 m/s)
Visibility: 6 or more miles (10+ km)
Ceiling: ceiling and visibility are OK
Clouds: unknown
Weather: no significant weather observed at this time

METAR text: OKBK 181900Z 34007KT CAVOK 12/M02 Q1022 NOSIG
Conditions at: OKBK (KUWAIT INTL (MIL, KW) observed 1900 UTC 18 January 2019
Temperature: 12.0°C (54°F)
Dewpoint: -2.0°C (28°F) [RH = 38%]
Pressure (altimeter): 30.18 inches Hg (1022.0 mb)
Winds: from the NNW (340 degrees) at 8 MPH (7 knots; 3.6 m/s)
Visibility: 6 or more miles (10+ km)
Ceiling: ceiling and visibility are OK
Clouds: unknown
Weather: no significant weather observed at this time

METAR text: OKBK 181800Z 35009KT CAVOK 12/M02 Q1022 NOSIG
Conditions at: OKBK (KUWAIT INTL (MIL, KW) observed 1800 UTC 18 January 2019
Temperature: 12.0°C (54°F)
Dewpoint: -2.0°C (28°F) [RH = 38%]
Pressure (altimeter): 30.18 inches Hg (1022.0 mb)
Winds: from the N (350 degrees) at 10 MPH (9 knots; 4.6 m/s)
Visibility: 6 or more miles (10+ km)
Ceiling: ceiling and visibility are OK
Clouds: unknown
Weather: no significant weather observed at this time

METAR text: OKBK 181700Z 35011KT CAVOK 13/M02 Q1022 NOSIG
Conditions at: OKBK (KUWAIT INTL (MIL, KW) observed 1700 UTC 18 January 2019
Temperature: 13.0°C (55°F)
Dewpoint: -2.0°C (28°F) [RH = 35%]
Pressure (altimeter): 30.18 inches Hg (1022.0 mb)
Winds: from the N (350 degrees) at 13 MPH (11 knots; 5.7 m/s)
Visibility: 6 or more miles (10+ km)
Ceiling: ceiling and visibility are OK
Clouds: unknown
Weather: no significant weather observed at this time

METAR text: OKBK 181600Z 35012KT CAVOK 14/M03 Q1021 NOSIG
Conditions at: OKBK (KUWAIT INTL (MIL, KW) observed 1600 UTC 18 January 2019
Temperature: 14.0°C (57°F)
Dewpoint: -3.0°C (27°F) [RH = 31%]
Pressure (altimeter): 30.15 inches Hg (1021.0 mb)
Winds: from the N (350 degrees) at 14 MPH (12 knots; 6.2 m/s)
Visibility: 6 or more miles (10+ km)
Ceiling: ceiling and visibility are OK
Clouds: unknown
Weather: no significant weather observed at this time

METAR text: OKBK 181500Z 36009KT 6000 SKC 14/00 Q1021 NOSIG
Conditions at: OKBK (KUWAIT INTL (MIL, KW) observed 1500 UTC 18 January 2019
Temperature: 14.0°C (57°F)
Dewpoint: 0.0°C (32°F) [RH = 38%]
Pressure (altimeter): 30.15 inches Hg (1021.0 mb)
Winds: from the N (360 degrees) at 10 MPH (9 knots; 4.6 m/s)
Visibility: 4 miles ( 6 km)
Ceiling: at least 12,000 feet AGL
Clouds: clear skies
Weather: no significant weather observed at this time

METAR text: OKBK 181400Z 36012KT 2000 -DU SKC 14/01 Q1020 NOSIG
Conditions at: OKBK (KUWAIT INTL (MIL, KW) observed 1400 UTC 18 January 2019
Temperature: 14.0°C (57°F)
Dewpoint: 1.0°C (34°F) [RH = 41%]
Pressure (altimeter): 30.12 inches Hg (1020.0 mb)
Winds: from the N (360 degrees) at 14 MPH (12 knots; 6.2 m/s)
Visibility: 1.24 miles (2.00 km)
Ceiling: at least 12,000 feet AGL
Clouds: clear skies
Weather: -DU  (unknown weather)

METAR text: OKBK 181300Z Z 36011KT 2000 -DU SKC 15/02 Q1020 NOSIG
Conditions at: OKBK (KUWAIT INTL (MIL, KW) observed 1300 UTC 18 January 2019
Temperature: 15.0°C (59°F)
Dewpoint: 2.0°C (36°F) [RH = 41%]
Pressure (altimeter): 30.12 inches Hg (1020.0 mb)
Winds: from the N (360 degrees) at 13 MPH (11 knots; 5.7 m/s)
Visibility: 1.24 miles (2.00 km)
Ceiling: at least 12,000 feet AGL
Clouds: clear skies
Weather: DU  (widespread dust)

METAR text: OKBK 181259Z 36011KT 2000 -DU SKC 15/02 Q1020 NOSIG
Conditions at: OKBK (KUWAIT INTL (MIL, KW) observed 1259 UTC 18 January 2019
Temperature: 15.0°C (59°F)
Dewpoint: 2.0°C (36°F) [RH = 41%]
Pressure (altimeter): 30.12 inches Hg (1020.0 mb)
Winds: from the N (360 degrees) at 13 MPH (11 knots; 5.7 m/s)
Visibility: 1.24 miles (2.00 km)
Ceiling: at least 12,000 feet AGL
Clouds: clear skies
Weather: -DU  (unknown weather)

METAR text: OKBK 181200Z 36009KT 2000 -DU SKC 15/01 Q1020 NOSIG
Conditions at: OKBK (KUWAIT INTL (MIL, KW) observed 1200 UTC 18 January 2019
Temperature: 15.0°C (59°F)
Dewpoint: 1.0°C (34°F) [RH = 39%]
Pressure (altimeter): 30.12 inches Hg (1020.0 mb)
Winds: from the N (360 degrees) at 10 MPH (9 knots; 4.6 m/s)
Visibility: 1.24 miles (2.00 km)
Ceiling: at least 12,000 feet AGL
Clouds: clear skies
Weather: -DU  (unknown weather)

METAR text: OKBK 181100Z 36010KT 2500 -DU SKC 15/02 Q1020 NOSIG
Conditions at: OKBK (KUWAIT INTL (MIL, KW) observed 1100 UTC 18 January 2019
Temperature: 15.0°C (59°F)
Dewpoint: 2.0°C (36°F) [RH = 41%]
Pressure (altimeter): 30.12 inches Hg (1020.0 mb)
Winds: from the N (360 degrees) at 12 MPH (10 knots; 5.1 m/s)
Visibility: 1.55 miles (2.49 km)
Ceiling: at least 12,000 feet AGL
Clouds: clear skies
Weather: -DU  (unknown weather)

METAR text: OKBK 181000Z 36011KT 2000 -DU SKC 15/04 Q1020 NOSIG
Conditions at: OKBK (KUWAIT INTL (MIL, KW) observed 1000 UTC 18 January 2019
Temperature: 15.0°C (59°F)
Dewpoint: 4.0°C (39°F) [RH = 48%]
Pressure (altimeter): 30.12 inches Hg (1020.0 mb)
Winds: from the N (360 degrees) at 13 MPH (11 knots; 5.7 m/s)
Visibility: 1.24 miles (2.00 km)
Ceiling: at least 12,000 feet AGL
Clouds: clear skies
Weather: -DU  (unknown weather)

METAR text: OKBK 180900Z 35010KT 2500 -DU SKC 15/04 Q1021 NOSIG
Conditions at: OKBK (KUWAIT INTL (MIL, KW) observed 0900 UTC 18 January 2019
Temperature: 15.0°C (59°F)
Dewpoint: 4.0°C (39°F) [RH = 48%]
Pressure (altimeter): 30.15 inches Hg (1021.0 mb)
Winds: from the N (350 degrees) at 12 MPH (10 knots; 5.1 m/s)
Visibility: 1.55 miles (2.49 km)
Ceiling: at least 12,000 feet AGL
Clouds: clear skies
Weather: -DU  (unknown weather)

METAR text: OKBK 180800Z 33009KT 2500 -DU SKC 15/04 Q1021 NOSIG
Conditions at: OKBK (KUWAIT INTL (MIL, KW) observed 0800 UTC 18 January 2019
Temperature: 15.0°C (59°F)
Dewpoint: 4.0°C (39°F) [RH = 48%]
Pressure (altimeter): 30.15 inches Hg (1021.0 mb)
Winds: from the NNW (330 degrees) at 10 MPH (9 knots; 4.6 m/s)
Visibility: 1.55 miles (2.49 km)
Ceiling: at least 12,000 feet AGL
Clouds: clear skies
Weather: -DU  (unknown weather)

METAR text: OKBK 180700Z 32009KT 2000 -DU SKC 14/04 Q1022 NOSIG
Conditions at: OKBK (KUWAIT INTL (MIL, KW) observed 0700 UTC 18 January 2019
Temperature: 14.0°C (57°F)
Dewpoint: 4.0°C (39°F) [RH = 51%]
Pressure (altimeter): 30.18 inches Hg (1022.0 mb)
Winds: from the NW (320 degrees) at 10 MPH (9 knots; 4.6 m/s)
Visibility: 1.24 miles (2.00 km)
Ceiling: at least 12,000 feet AGL
Clouds: clear skies
Weather: -DU  (unknown weather)

METAR text: OKBK 180600Z 30007KT 1800 -DU SKC 13/04 Q1022 NOSIG
Conditions at: OKBK (KUWAIT INTL (MIL, KW) observed 0600 UTC 18 January 2019
Temperature: 13.0°C (55°F)
Dewpoint: 4.0°C (39°F) [RH = 54%]
Pressure (altimeter): 30.18 inches Hg (1022.0 mb)
Winds: from the WNW (300 degrees) at 8 MPH (7 knots; 3.6 m/s)
Visibility: 1.12 miles (1.80 km)
Ceiling: at least 12,000 feet AGL
Clouds: clear skies
Weather: -DU  (unknown weather)

METAR text: OKBK 180500Z 28003KT 1800 -DU SKC 10/06 Q1022 NOSIG
Conditions at: OKBK (KUWAIT INTL (MIL, KW) observed 0500 UTC 18 January 2019
Temperature: 10.0°C (50°F)
Dewpoint: 6.0°C (43°F) [RH = 76%]
Pressure (altimeter): 30.18 inches Hg (1022.0 mb)
Winds: from the W (280 degrees) at 3 MPH (3 knots; 1.5 m/s)
Visibility: 1.12 miles (1.80 km)
Ceiling: at least 12,000 feet AGL
Clouds: clear skies
Weather: -DU  (unknown weather)

METAR text: OKBK 180400Z 23003KT 2000 -DU SKC 09/06 Q1021 NOSIG
Conditions at: OKBK (KUWAIT INTL (MIL, KW) observed 0400 UTC 18 January 2019
Temperature: 9.0°C (48°F)
Dewpoint: 6.0°C (43°F) [RH = 81%]
Pressure (altimeter): 30.15 inches Hg (1021.0 mb)
Winds: from the SW (230 degrees) at 3 MPH (3 knots; 1.5 m/s)
Visibility: 1.24 miles (2.00 km)
Ceiling: at least 12,000 feet AGL
Clouds: clear skies
Weather: -DU  (unknown weather)

Forecast for: OKBK (KUWAIT INTL (MIL, KW)
Text: TAF OKBK 191045Z 1912/2018 35012KT 7000 SKC
Forecast period: 1200 UTC 19 January 2019 to 1800 UTC 20 January 2019
Forecast type: FROM: standard forecast or significant change
Winds: from the N (350 degrees) at 14 MPH (12 knots; 6.2 m/s)
Visibility: 4 miles (7 km)
Clouds: clear skies
Weather: no significant weather forecast for this period